Nicolò Giuliani

Chefscout - Inter
3 Dez 2028
Sonntag
Verarbeitung

Persönlichkeit

Anpassungsfähigkeit (6) Ehrgeiz (4) Kontroverse (11) Loyalität (1) Druck (17) Professionalität (5) Fairness (19) Temperament (17)

Profil

Trainerstil Demokratisch
Lizenz Kontinentale B
Entschlossenheit 6
Menschenführung 11
Motivation 9
Disziplin 14
Arbeitszufriedenheit
100%
Ermüdung
0%
Rolle Chefscout
Gehalt 66.2K p/W
Vertrag 14.03.2029

Leistung

Verhalten Gut
Trainingseffektivität
51%
Spielerentwicklung
80%
Verletzungsprävention
50%
Taktische Umsetzung
80%

Letzte Ereignisse

Nahm an einer Scouting-Besprechung teil jetzt
Nahm an einer Scouting-Besprechung teil jetzt
Empfahl ein Transferziel jetzt
Empfahl ein Transferziel jetzt
Empfahl ein Transferziel jetzt
Empfahl ein Transferziel jetzt
Empfahl ein Transferziel 7T her
Empfahl ein Transferziel 7T her

Aktuell beobachtet

111
Spieler Verein Status Fähigkeit Vertrauen Beobachtet Zuletzt beobachtet Letzte Stimme
Alexander Isak Liverpool Aktiv 177 / 178 40% 1 14.08.2028 -
Jérémy Doku Manchester City Aktiv 176 / 173 40% 1 14.08.2028 -
Enzo Fernández Manchester City Aktiv 174 / 175 40% 2 31.07.2028 -
Federico Dimarco Manchester City Aktiv 168 / 166 40% 1 31.07.2028 -
Adam Wharton Crystal Palace Aktiv 165 / 164 40% 1 17.07.2028 -
Tino Livramento Newcastle United Verloren 169 / 166 40% 1 17.07.2028 -
Ousmane Diomande Nottingham Forest Aktiv 159 / 162 40% 1 17.07.2028 -
Benjamin White Arsenal Aktiv 166 / 161 40% 1 10.07.2028 -
Caoimhin Kelleher Brentford Aktiv 160 / 157 40% 2 01.06.2028 -
Alex Meret Napoli Aktiv 159 / 154 40% 1 01.06.2028 -
Gianluigi Donnarumma AS Roma Verhandlung 166 / 173 40% 1 01.06.2028 -
Sandro Tonali Tottenham Verloren 176 / 175 40% 1 31.05.2028 -
Ryan Gravenberch Liverpool Aktiv 167 / 164 40% 1 31.05.2028 -
Omar Marmoush Manchester City Aktiv 173 / 170 40% 1 31.05.2028 -
Daniel Banjaqui Benfica Aktiv 123 / 129 40% 11 29.05.2028 -
Ayden Heaven Portsmouth Aktiv 143 / 151 40% 15 29.05.2028 -
Noahkai Banks FC Augsburg Aktiv 138 / 144 40% 8 29.05.2028 -
Bade Aluko Leicester City Aktiv 124 / 124 40% 6 27.05.2028 -
Tobías Ramírez River Plate Aktiv 135 / 132 40% 9 24.05.2028 -
Jan Bürger Northampton Town Aktiv 118 / 123 40% 9 24.05.2028 -
Jorthy Mokio ADO Den Haag Aktiv 134 / 136 40% 10 23.05.2028 -
Josh Nichols Oldham Athletic Aktiv 122 / 125 40% 5 23.05.2028 -
Giovanni Leoni Lincoln City Aktiv 142 / 143 40% 8 23.05.2028 -
Ezra Mayers West Ham United Aktiv 126 / 127 40% 15 11.05.2028 -
Luka Vušković Tottenham Aktiv 144 / 151 40% 24 10.05.2028 -
Trey Nyoni Rotherham United Aktiv 138 / 145 40% 7 10.05.2028 -
Christos Mouzakitis Hull City Aktiv 140 / 140 40% 4 09.05.2028 -
Josh Acheampong Everton Aktiv 144 / 147 40% 22 26.04.2028 -
Halam Loboa Sevilla Aktiv 127 / 130 40% 21 07.04.2028 -
Thiago Silvero Vélez Aktiv 131 / 133 40% 4 07.04.2028 -
Jason Witsel PSV Aktiv 122 / 127 40% 4 11.03.2028 -
Jofre Torrents Ajax Aktiv 128 / 132 40% 4 27.02.2028 -
Eric da Silva Moreira Nottingham Forest Aktiv 128 / 128 40% 5 24.02.2028 -
Almugera Kabar Borussia Dortmund Aktiv 128 / 127 40% 3 15.02.2028 -
Yoram Zague Paris Saint-Germain Aktiv 126 / 129 40% 2 10.02.2028 -
Mats Rots TSG Hoffenheim Aktiv 125 / 134 40% 1 08.02.2028 -
Niccolò Fortini Fiorentina Aktiv 132 / 140 40% 12 01.02.2028 -
Lucas Bergvall Tottenham Aktiv 155 / 154 40% 8 23.01.2028 -
Moise Kean Fiorentina Aktiv 165 / 153 40% 1 12.01.2028 -
Giacomo Raspadori Atalanta Verloren 159 / 151 40% 1 12.01.2028 -
Martin Baturina Como Verloren 143 / 147 40% 2 02.01.2028 -
Devyne Rensch Virtus Entella Aktiv 144 / 145 40% 1 02.01.2028 -
Marco Carnesecchi Club America Aktiv 153 / 153 95% 1 01.01.2028 Befürworten
Mao Hosoya Santos Aktiv 134 / 135 67% 1 01.01.2028 Befürworten
Gabri Veiga Getafe Aktiv 147 / 149 69% 1 01.01.2028 Befürworten
Riccardo Orsolini Bologna Aktiv 161 / 154 72% 1 01.01.2028 Befürworten
Victor Hernandez Santa Fe Aktiv 130 / 122 40% 9 22.12.2027 -
Malick Yalcouyé Brighton Aktiv 127 / 134 40% 12 08.11.2027 -
Elias Baum Eintracht Frankfurt Aktiv 132 / 133 40% 3 16.10.2027 -
Eliás Montiel Borussia Dortmund Aktiv 138 / 138 40% 10 23.09.2027 -
Matias Siltanen Malmo FF Aktiv 114 / 121 40% 7 09.09.2027 -
Exequiel Palacios Lazio Aktiv 166 / 166 40% 1 30.08.2027 -
Manu Koné AS Roma Aktiv 164 / 163 40% 1 30.08.2027 -
Wesley AS Roma Aktiv 142 / 150 40% 21 13.07.2027 -
Nathaniel Brown Bayern Munich Aktiv 146 / 149 40% 1 06.07.2027 -
Enzo Millot Al-Ahli Aktiv 143 / 154 40% 1 06.07.2027 -
Tomás Pérez Porto Aktiv 125 / 122 40% 2 20.06.2027 -
Francisco Trincão Inter Aktiv 156 / 156 66% 1 01.06.2027 Befürworten
Malo Gusto Chelsea Aktiv 155 / 149 40% 14 29.05.2027 -
Eduardo Lozano Botafogo Aktiv 151 / 142 40% 1 22.05.2027 -
Savinho Tottenham Aktiv 153 / 157 40% 11 18.05.2027 -
Diego Gómez Brighton Aktiv 147 / 143 40% 21 13.05.2027 -
Kobbie Mainoo Manchester United Aktiv 155 / 155 40% 17 07.05.2027 -
Mathys Tel Tottenham Aktiv 141 / 148 40% 3 05.05.2027 -
Kenneth Taylor Lazio Aktiv 145 / 156 40% 13 02.05.2027 -
Bence Dárdai VfL Wolfsburg Aktiv 135 / 133 40% 1 21.04.2027 -
Arthur Atta Fiorentina Aktiv 133 / 139 40% 1 08.02.2027 -
Raúl Rangel Braga Aktiv 132 / 132 66% 1 01.01.2027 Befürworten
Louis Leroux FC Nantes Aktiv 119 / 128 40% 4 29.12.2026 -
Abdoulkarim Traoré Al Ain Aktiv 120 / 134 40% 2 29.12.2026 -
Riyad Idrissi Cagliari Aktiv 128 / 125 40% 9 27.12.2026 -
David Ozoh Derby County Aktiv 121 / 128 40% 5 23.12.2026 -
Andrea Pinamonti Lazio Aktiv 129 / 131 40% 3 20.12.2026 -
Mile Svilar AS Roma Aktiv 159 / 157 40% 2 15.12.2026 Mehr Infos nötig
Ivo Mammini Beitar Jerusalem Aktiv 122 / 129 40% 1 11.12.2026 -
Armstrong Oko-Flex Levski Aktiv 131 / 114 40% 1 06.12.2026 -
Sota Kitano Red Bull Salzburg Aktiv 129 / 126 40% 1 05.12.2026 -
Nikita Stoinov Dinamo Bucharest Aktiv 124 / 134 40% 1 26.11.2026 -
Sergi Domínguez Dinamo Zagreb Aktiv 125 / 128 40% 3 25.11.2026 -
Elia Caprile Cagliari Aktiv 134 / 147 40% 1 24.11.2026 -
Giorgi Kvernadze Frosinone Aktiv 127 / 129 40% 1 17.11.2026 -
Donyell Malen AS Roma Aktiv 145 / 145 40% 1 03.11.2026 -
Martín Ojeda Orlando City Aktiv 129 / 131 40% 1 01.11.2026 -
Nicolò Zaniolo Udinese Aktiv 149 / 146 40% 1 27.10.2026 -
Matheus Cunha Manchester United Aktiv 160 / 156 40% 2 25.10.2026 -
Tyrese Campbell Sheffield United Aktiv 120 / 129 40% 2 25.10.2026 -
Gabriel Martinelli Arsenal Aktiv 162 / 164 40% 3 25.10.2026 -
Nico O'Reilly Manchester City Aktiv 148 / 153 40% 6 23.10.2026 -
Nicolas Jackson Aston Villa Aktiv 140 / 141 40% 2 23.10.2026 -
Mbekezeli Mbokazi Chicago Fire Aktiv 112 / 121 40% 2 21.10.2026 -
Vitinha Genoa Aktiv 126 / 133 40% 1 21.10.2026 -
Antoine Semenyo Manchester City Aktiv 151 / 159 40% 1 21.10.2026 -
Kyriani Sabbe Club Brugge Aktiv 122 / 124 40% 1 15.10.2026 -
Lautaro Vargas Unión de Santa Fe Aktiv 116 / 119 40% 1 10.10.2026 -
Mohamed-Ali Cho Hull City Aktiv 132 / 140 40% 1 08.10.2026 -
Kévin Denkey FC Cincinnati Aktiv 123 / 122 40% 1 08.10.2026 -
Morgan Rogers Chelsea Aktiv 156 / 156 40% 2 07.10.2026 -
Talles Magno New York City Aktiv 139 / 127 40% 1 07.10.2026 -
John Pulskamp Sporting Kansas City Aktiv 112 / 116 40% 1 06.10.2026 -
Caleb Yirenkyi Coventry City Aktiv 126 / 136 40% 4 01.10.2026 -
Stefano Di Mario Virtus Entella Aktiv 115 / 131 40% 1 28.09.2026 -
Ignacio Perruzzi San Lorenzo Aktiv 114 / 138 40% 1 23.09.2026 -
Iván Fresneda Sporting CP Aktiv 135 / 144 40% 1 21.09.2026 -
Mathias De Amorim Famalicao Aktiv 135 / 138 40% 1 18.09.2026 -
James Bacca La Equidad Aktiv 131 / 123 40% 1 16.09.2026 -
Lewis Hall Newcastle United Aktiv 141 / 152 40% 1 30.08.2026 -
Victor Froholdt Porto Aktiv 151 / 152 40% 1 26.08.2026 -
Rayan Cherki Manchester City Aktiv 159 / 168 40% 1 04.08.2026 -
Hugo Ekitiké Liverpool Aktiv 156 / 158 40% 2 03.08.2026 -
Bradley Barcola Liverpool Aktiv 162 / 156 40% 1 01.08.2026 -
Benjamin Šeško Manchester United Aktiv 152 / 151 40% 1 01.08.2026 -